sensor_id;sensor_type;location;lat;lon;timestamp;pressure;altitude;pressure_sealevel;temperature;humidity
71956;BME280;59829;50.562;6.258;2022-11-15T00:05:01;95130.84;;;10.05;100.00
71956;BME280;59829;50.562;6.258;2022-11-15T00:15:02;95130.19;;;9.93;100.00
71956;BME280;59829;50.562;6.258;2022-11-15T00:25:02;95110.78;;;10.20;100.00
71956;BME280;59829;50.562;6.258;2022-11-15T00:35:03;95097.31;;;10.18;100.00
71956;BME280;59829;50.562;6.258;2022-11-15T00:45:04;95095.84;;;10.15;100.00
71956;BME280;59829;50.562;6.258;2022-11-15T00:55:05;95092.75;;;10.12;100.00
71956;BME280;59829;50.562;6.258;2022-11-15T01:05:06;95085.72;;;10.14;100.00
71956;BME280;59829;50.562;6.258;2022-11-15T01:15:07;95080.63;;;10.04;100.00
71956;BME280;59829;50.562;6.258;2022-11-15T01:25:07;95078.19;;;10.22;100.00
71956;BME280;59829;50.562;6.258;2022-11-15T01:35:07;95074.44;;;10.26;100.00
71956;BME280;59829;50.562;6.258;2022-11-15T01:45:13;95054.47;;;10.30;100.00
71956;BME280;59829;50.562;6.258;2022-11-15T01:55:20;95062.53;;;10.35;100.00
71956;BME280;59829;50.562;6.258;2022-11-15T02:05:21;95048.84;;;10.26;100.00
71956;BME280;59829;50.562;6.258;2022-11-15T02:15:24;95044.75;;;10.43;100.00
71956;BME280;59829;50.562;6.258;2022-11-15T02:26:08;95023.84;;;10.47;100.00
71956;BME280;59829;50.562;6.258;2022-11-15T02:36:29;95019.38;;;10.49;100.00
71956;BME280;59829;50.562;6.258;2022-11-15T02:46:41;95030.72;;;10.37;100.00
71956;BME280;59829;50.562;6.258;2022-11-15T02:57:06;95014.50;;;10.56;100.00
71956;BME280;59829;50.562;6.258;2022-11-15T03:07:29;95015.88;;;10.50;100.00
71956;BME280;59829;50.562;6.258;2022-11-15T03:17:34;95012.78;;;10.47;100.00
71956;BME280;59829;50.562;6.258;2022-11-15T03:27:39;95006.59;;;10.40;100.00
71956;BME280;59829;50.562;6.258;2022-11-15T03:37:56;95002.56;;;10.47;100.00
71956;BME280;59829;50.562;6.258;2022-11-15T03:48:14;94978.41;;;10.49;100.00
71956;BME280;59829;50.562;6.258;2022-11-15T03:58:16;94984.41;;;10.31;100.00
71956;BME280;59829;50.562;6.258;2022-11-15T04:08:16;94986.25;;;10.38;100.00
71956;BME280;59829;50.562;6.258;2022-11-15T04:18:16;94991.97;;;10.32;100.00
71956;BME280;59829;50.562;6.258;2022-11-15T04:28:17;94965.56;;;10.22;100.00
71956;BME280;59829;50.562;6.258;2022-11-15T04:38:18;94980.97;;;10.03;100.00
71956;BME280;59829;50.562;6.258;2022-11-15T04:48:18;94978.53;;;10.11;100.00
71956;BME280;59829;50.562;6.258;2022-11-15T04:58:18;94974.53;;;9.98;100.00
71956;BME280;59829;50.562;6.258;2022-11-15T05:08:19;94977.22;;;9.87;100.00
71956;BME280;59829;50.562;6.258;2022-11-15T05:18:19;94994.47;;;9.85;100.00
71956;BME280;59829;50.562;6.258;2022-11-15T05:28:19;94992.06;;;9.84;100.00
71956;BME280;59829;50.562;6.258;2022-11-15T05:38:20;94989.38;;;9.76;100.00
71956;BME280;59829;50.562;6.258;2022-11-15T05:48:20;94977.53;;;9.65;100.00
71956;BME280;59829;50.562;6.258;2022-11-15T05:58:21;94971.38;;;9.58;100.00
71956;BME280;59829;50.562;6.258;2022-11-15T06:08:21;94989.25;;;9.48;100.00
71956;BME280;59829;50.562;6.258;2022-11-15T06:18:21;94983.91;;;9.22;100.00
71956;BME280;59829;50.562;6.258;2022-11-15T06:28:22;94979.72;;;9.21;100.00
71956;BME280;59829;50.562;6.258;2022-11-15T06:38:22;94987.22;;;8.94;100.00
71956;BME280;59829;50.562;6.258;2022-11-15T06:48:22;94986.28;;;8.85;100.00
71956;BME280;59829;50.562;6.258;2022-11-15T06:58:22;95006.00;;;8.83;100.00
71956;BME280;59829;50.562;6.258;2022-11-15T07:08:24;95016.09;;;8.85;100.00
71956;BME280;59829;50.562;6.258;2022-11-15T07:18:26;95010.47;;;8.91;100.00
71956;BME280;59829;50.562;6.258;2022-11-15T07:28:27;95017.56;;;8.77;100.00
71956;BME280;59829;50.562;6.258;2022-11-15T07:38:28;95019.72;;;8.72;100.00
71956;BME280;59829;50.562;6.258;2022-11-15T07:48:30;95018.59;;;8.65;100.00
71956;BME280;59829;50.562;6.258;2022-11-15T07:58:30;95020.72;;;8.60;100.00
71956;BME280;59829;50.562;6.258;2022-11-15T08:08:31;95014.78;;;8.50;100.00
71956;BME280;59829;50.562;6.258;2022-11-15T08:18:31;95004.47;;;8.61;100.00
71956;BME280;59829;50.562;6.258;2022-11-15T08:28:32;94986.91;;;8.77;100.00
71956;BME280;59829;50.562;6.258;2022-11-15T08:38:32;94990.34;;;9.07;100.00
71956;BME280;59829;50.562;6.258;2022-11-15T08:48:33;94980.78;;;9.09;100.00
71956;BME280;59829;50.562;6.258;2022-11-15T08:58:33;94960.34;;;8.90;100.00
71956;BME280;59829;50.562;6.258;2022-11-15T09:08:33;94951.47;;;9.42;99.20
71956;BME280;59829;50.562;6.258;2022-11-15T09:18:34;94922.97;;;9.27;96.28
71956;BME280;59829;50.562;6.258;2022-11-15T09:28:35;94920.47;;;10.11;91.14
71956;BME280;59829;50.562;6.258;2022-11-15T09:38:36;94915.44;;;10.29;87.36
71956;BME280;59829;50.562;6.258;2022-11-15T09:48:53;94906.53;;;10.33;84.78
71956;BME280;59829;50.562;6.258;2022-11-15T10:09:15;94902.91;;;10.53;82.27
71956;BME280;59829;50.562;6.258;2022-11-15T10:19:44;94883.50;;;10.33;82.39
71956;BME280;59829;50.562;6.258;2022-11-15T11:10:59;94792.94;;;13.23;71.48
71956;BME280;59829;50.562;6.258;2022-11-15T11:21:03;94795.66;;;13.30;71.64
71956;BME280;59829;50.562;6.258;2022-11-15T12:12:11;94706.94;;;14.27;70.72
71956;BME280;59829;50.562;6.258;2022-11-15T12:22:45;94673.13;;;15.20;69.29
71956;BME280;59829;50.562;6.258;2022-11-15T12:32:58;94651.09;;;16.68;61.11
71956;BME280;59829;50.562;6.258;2022-11-15T12:43:05;94654.72;;;16.52;63.04
71956;BME280;59829;50.562;6.258;2022-11-15T13:03:25;94622.84;;;17.84;58.77
71956;BME280;59829;50.562;6.258;2022-11-15T13:13:44;94605.00;;;18.42;53.79
71956;BME280;59829;50.562;6.258;2022-11-15T13:23:45;94609.19;;;16.30;61.92
71956;BME280;59829;50.562;6.258;2022-11-15T13:33:45;94600.56;;;14.41;68.82
71956;BME280;59829;50.562;6.258;2022-11-15T13:43:47;94586.41;;;15.91;64.73
71956;BME280;59829;50.562;6.258;2022-11-15T13:53:56;94575.00;;;14.54;70.91
71956;BME280;59829;50.562;6.258;2022-11-15T14:03:59;94555.91;;;13.42;75.28
71956;BME280;59829;50.562;6.258;2022-11-15T14:24:31;94523.72;;;12.29;87.04
71956;BME280;59829;50.562;6.258;2022-11-15T14:34:32;94511.78;;;11.81;90.23
71956;BME280;59829;50.562;6.258;2022-11-15T14:44:32;94503.38;;;11.54;91.65
71956;BME280;59829;50.562;6.258;2022-11-15T14:54:32;94495.03;;;11.36;94.45
71956;BME280;59829;50.562;6.258;2022-11-15T15:04:33;94491.84;;;11.50;93.23
71956;BME280;59829;50.562;6.258;2022-11-15T15:14:33;94479.50;;;11.54;93.02
71956;BME280;59829;50.562;6.258;2022-11-15T15:24:33;94466.19;;;11.34;94.48
71956;BME280;59829;50.562;6.258;2022-11-15T15:34:34;94477.59;;;11.47;95.53
71956;BME280;59829;50.562;6.258;2022-11-15T15:44:34;94454.03;;;11.36;98.86
71956;BME280;59829;50.562;6.258;2022-11-15T15:54:34;94441.84;;;11.38;100.00
71956;BME280;59829;50.562;6.258;2022-11-15T16:04:35;94438.00;;;11.26;100.00
71956;BME280;59829;50.562;6.258;2022-11-15T16:14:35;94439.56;;;11.10;100.00
71956;BME280;59829;50.562;6.258;2022-11-15T16:24:36;94444.41;;;11.13;100.00
71956;BME280;59829;50.562;6.258;2022-11-15T16:34:36;94440.72;;;11.16;100.00
71956;BME280;59829;50.562;6.258;2022-11-15T16:44:36;94425.00;;;11.03;100.00
71956;BME280;59829;50.562;6.258;2022-11-15T16:54:37;94419.84;;;10.78;100.00
71956;BME280;59829;50.562;6.258;2022-11-15T17:04:37;94415.56;;;10.95;100.00
71956;BME280;59829;50.562;6.258;2022-11-15T17:14:37;94412.97;;;10.87;100.00
71956;BME280;59829;50.562;6.258;2022-11-15T17:24:38;94418.38;;;10.68;100.00
71956;BME280;59829;50.562;6.258;2022-11-15T17:34:38;94395.66;;;10.73;100.00
71956;BME280;59829;50.562;6.258;2022-11-15T17:44:38;94391.81;;;10.93;100.00
71956;BME280;59829;50.562;6.258;2022-11-15T17:54:39;94384.97;;;11.02;100.00
71956;BME280;59829;50.562;6.258;2022-11-15T18:04:39;94386.72;;;10.77;100.00
71956;BME280;59829;50.562;6.258;2022-11-15T18:14:39;94392.94;;;10.91;100.00
71956;BME280;59829;50.562;6.258;2022-11-15T18:24:40;94385.75;;;11.02;100.00
71956;BME280;59829;50.562;6.258;2022-11-15T18:34:42;94369.13;;;10.98;100.00
71956;BME280;59829;50.562;6.258;2022-11-15T18:44:42;94357.91;;;10.99;100.00
71956;BME280;59829;50.562;6.258;2022-11-15T18:54:42;94335.47;;;11.09;100.00
71956;BME280;59829;50.562;6.258;2022-11-15T19:04:43;94341.25;;;11.03;100.00
71956;BME280;59829;50.562;6.258;2022-11-15T19:14:43;94334.84;;;10.99;100.00
71956;BME280;59829;50.562;6.258;2022-11-15T19:24:43;94319.78;;;10.96;100.00
71956;BME280;59829;50.562;6.258;2022-11-15T19:34:43;94318.03;;;11.05;100.00
71956;BME280;59829;50.562;6.258;2022-11-15T19:44:44;94310.81;;;11.00;100.00
71956;BME280;59829;50.562;6.258;2022-11-15T19:54:45;94305.69;;;11.00;100.00
71956;BME280;59829;50.562;6.258;2022-11-15T20:04:45;94287.09;;;11.14;100.00
71956;BME280;59829;50.562;6.258;2022-11-15T20:14:45;94280.06;;;11.16;100.00
71956;BME280;59829;50.562;6.258;2022-11-15T20:24:45;94268.03;;;11.09;100.00
71956;BME280;59829;50.562;6.258;2022-11-15T20:34:46;94269.59;;;11.26;100.00
71956;BME280;59829;50.562;6.258;2022-11-15T20:44:46;94262.09;;;11.25;100.00
71956;BME280;59829;50.562;6.258;2022-11-15T20:54:47;94258.56;;;11.26;100.00
71956;BME280;59829;50.562;6.258;2022-11-15T21:04:47;94251.56;;;11.11;100.00
71956;BME280;59829;50.562;6.258;2022-11-15T21:14:47;94243.84;;;11.20;100.00
71956;BME280;59829;50.562;6.258;2022-11-15T21:24:48;94227.34;;;11.22;100.00
71956;BME280;59829;50.562;6.258;2022-11-15T21:34:48;94228.75;;;11.25;100.00
71956;BME280;59829;50.562;6.258;2022-11-15T21:44:48;94215.03;;;11.09;100.00
71956;BME280;59829;50.562;6.258;2022-11-15T21:54:49;94206.75;;;10.99;100.00
71956;BME280;59829;50.562;6.258;2022-11-15T22:04:49;94206.69;;;11.15;100.00
71956;BME280;59829;50.562;6.258;2022-11-15T22:14:49;94195.19;;;11.11;100.00
71956;BME280;59829;50.562;6.258;2022-11-15T22:24:49;94176.25;;;11.21;100.00
71956;BME280;59829;50.562;6.258;2022-11-15T22:34:50;94177.41;;;11.02;100.00
71956;BME280;59829;50.562;6.258;2022-11-15T22:44:50;94171.16;;;11.12;100.00
71956;BME280;59829;50.562;6.258;2022-11-15T22:54:51;94157.97;;;11.24;100.00
71956;BME280;59829;50.562;6.258;2022-11-15T23:04:51;94157.03;;;11.16;100.00
71956;BME280;59829;50.562;6.258;2022-11-15T23:14:51;94146.56;;;11.34;100.00
71956;BME280;59829;50.562;6.258;2022-11-15T23:24:52;94147.75;;;11.07;100.00
71956;BME280;59829;50.562;6.258;2022-11-15T23:34:52;94140.97;;;11.23;100.00
71956;BME280;59829;50.562;6.258;2022-11-15T23:44:52;94137.16;;;11.18;100.00
71956;BME280;59829;50.562;6.258;2022-11-15T23:54:53;94153.16;;;11.21;100.00
